Altdorf, Wisconsin
Current Conditions -  °F | °C
As of 7:54 AM on Monday 20 Oct 2014 (Local Time) from KISW Reporting Station
Clear Clear  
Wind Chill:   Ceiling: Unl
Heat Index:   Visibility: 10mi
Dew Point:   Wind: 7mph
Humidity: 89%   Direction: 310°NW
Pressure: 29.89"   Gusts: NA
Location:  44.4583°N, 90.0009°W
Report Text: KISW 201254Z AUTO 31006KT 10SM CLR 07/05 A2989 RMK AO2 SLP128 T00670050
Loading
Personal Weather Stations






























Interactive Weather Map
Tropical Storm Tracking
New forecast layout! Learn more

10-Day Weather Forecast

Advertisements
Track Severe Weather on mobile